Main page
METAR-TAF:

METAR-TAF

Airports :

Paros, Greece

Paros National Airport

latitude: 37-01-15N, longitude: 025-06-46E, elevation: 38 m

Current weather observation

The report was made 21 minutes ago, at 22:50 UTC
Wind 4 kt from the Southeast
Temperature 12°C
Humidity 76%
Pressure 1016 hPa
light rain

METAR: LGPA 192250Z AUTO 14004KT //// -RA ////// 12/08 Q1016 RE//

Time: 01:11 (23:11 UTC)


TAF: missing

Weather observations and forecasts of more than 4000 airports (METAR and TAF reports).

The available stations are represented by yellow and red dots on the map.

Hover mouse over dot to see the name of the station.

Then click to see weather observations and forecasts.

To change the map : click on the green buttons with a black cross to zoom in, on the green button with a dash to zoom out, or on the green arrows for adjacent maps.


METAR-TAF: